Aeroporto :
LOGIN :

Iscrizione | Disclaimer

   EN    FR    IT 

 










Sommario :    VFR   VFR Marginale   IFR   IFR Intensivo   IFR Molto Intensivo
Visibilità : 
Base nubi : 
>= 8 km
>= 3000ft
5 / 8 km
1000 / 3000 ft
1500m / 5 km
500 / 1000 ft
800 / 1500m
200 / 500 ft
< 800m
< 200 ft
Simboli :   Temporali  Nebbia  Neve Forte  Precipitazioni Forti  Vento > 20 kt
SIGMETs :   Varie  Temporali  Ghiacco  Turbolenza  Onda orograficha  Ceneri Vulcaniche






- Altitudine del aeroporto : 302 ft
- Codice IATA : CGN


EDDK - Cologne Bonn

ULTIMO METAR :
  • 202350Z AUTO 27008KT 250V320 CAVOK 12/09 Q1021 NOSIG

METARs OBSOLETI :
  • 202320Z AUTO 27007KT 9999 FEW019 12/09 Q1021 NOSIG
  • 202250Z AUTO 29012KT 9999 FEW021 13/09 Q1021 BECMG 25007KT
  • 202220Z AUTO 29015KT 9999 SCT021 BKN034 14/10 Q1021 BECMG 26010KT
  • 202150Z AUTO 28015KT 9999 FEW023 BKN035 14/10 Q1020 BECMG 26010KT
  • 202120Z AUTO 28016KT 9999 SCT021 OVC030 14/10 Q1020 BECMG 26010KT

TAF TAF EDDK
Valido dal 21 a 00 ore il 22 a 06 ore UTC


202300Z 2100/2206 25007KT 9999 SCT025
BECMG 2105/2108 29012KT
BECMG 2114/2117 30007KT
BECMG 2117/2120 VRB03KT



MetMap, La meteo Aeronautica in un colpo d'occhio ! - Copyright ORBIFLY Dicembre 2007 - Disclaimer

ORBIFLY MET'MAP TEAM :

Programmazione e sviluppo : Alexandra Zaïnal
Concezione : Baudouin d'Aumeries
Supporto tecnico e logistico : Manuel Goepfert
Aiuto : Marc-Olivier Méhu
Aiuto per la traduzione : Arnaldo La Scala

Contatto : metmap@orbifly.com




FONTI E CREDITI :

   NOAA